sensor_id;sensor_type;location;lat;lon;timestamp;P1;durP1;ratioP1;P2;durP2;ratioP2
8113;SDS011;4099;52.684;9.918;2022-10-20T00:03:12;8.90;;;4.60;;
8113;SDS011;4099;52.684;9.918;2022-10-20T00:08:14;5.43;;;4.03;;
8113;SDS011;4099;52.684;9.918;2022-10-20T00:13:17;6.67;;;4.53;;
8113;SDS011;4099;52.684;9.918;2022-10-20T00:18:19;5.17;;;4.07;;
8113;SDS011;4099;52.684;9.918;2022-10-20T00:23:22;8.70;;;5.23;;
8113;SDS011;4099;52.684;9.918;2022-10-20T00:28:25;6.40;;;4.33;;
8113;SDS011;4099;52.684;9.918;2022-10-20T00:33:27;6.43;;;4.23;;
8113;SDS011;4099;52.684;9.918;2022-10-20T00:38:29;7.17;;;5.07;;
8113;SDS011;4099;52.684;9.918;2022-10-20T00:43:43;8.20;;;4.80;;
8113;SDS011;4099;52.684;9.918;2022-10-20T00:48:48;6.13;;;4.40;;
8113;SDS011;4099;52.684;9.918;2022-10-20T00:53:52;7.83;;;4.83;;
8113;SDS011;4099;52.684;9.918;2022-10-20T00:59:03;7.10;;;4.03;;
8113;SDS011;4099;52.684;9.918;2022-10-20T01:04:05;7.53;;;4.30;;
8113;SDS011;4099;52.684;9.918;2022-10-20T01:09:07;7.43;;;4.70;;
8113;SDS011;4099;52.684;9.918;2022-10-20T01:14:17;8.67;;;4.30;;
8113;SDS011;4099;52.684;9.918;2022-10-20T01:25:04;5.27;;;4.07;;
8113;SDS011;4099;52.684;9.918;2022-10-20T01:30:14;5.43;;;4.50;;
8113;SDS011;4099;52.684;9.918;2022-10-20T01:35:20;10.90;;;4.63;;
8113;SDS011;4099;52.684;9.918;2022-10-20T01:40:36;6.97;;;4.50;;
8113;SDS011;4099;52.684;9.918;2022-10-20T01:45:45;5.77;;;4.50;;
8113;SDS011;4099;52.684;9.918;2022-10-20T01:50:49;7.27;;;4.90;;
8113;SDS011;4099;52.684;9.918;2022-10-20T01:55:52;7.37;;;4.73;;
8113;SDS011;4099;52.684;9.918;2022-10-20T02:00:58;5.03;;;4.13;;
8113;SDS011;4099;52.684;9.918;2022-10-20T02:06:16;6.23;;;4.43;;
8113;SDS011;4099;52.684;9.918;2022-10-20T02:11:25;7.33;;;4.23;;
8113;SDS011;4099;52.684;9.918;2022-10-20T02:16:42;5.77;;;4.53;;
8113;SDS011;4099;52.684;9.918;2022-10-20T02:21:46;6.67;;;4.10;;
8113;SDS011;4099;52.684;9.918;2022-10-20T02:26:50;5.27;;;3.80;;
8113;SDS011;4099;52.684;9.918;2022-10-20T02:31:55;5.83;;;4.10;;
8113;SDS011;4099;52.684;9.918;2022-10-20T02:36:57;3.87;;;3.47;;
8113;SDS011;4099;52.684;9.918;2022-10-20T02:41:59;8.93;;;3.70;;
8113;SDS011;4099;52.684;9.918;2022-10-20T02:47:05;7.13;;;3.90;;
8113;SDS011;4099;52.684;9.918;2022-10-20T02:52:07;4.57;;;3.40;;
8113;SDS011;4099;52.684;9.918;2022-10-20T02:57:09;4.70;;;3.93;;
8113;SDS011;4099;52.684;9.918;2022-10-20T03:02:12;5.33;;;3.40;;
8113;SDS011;4099;52.684;9.918;2022-10-20T03:07:14;5.20;;;4.00;;
8113;SDS011;4099;52.684;9.918;2022-10-20T03:12:16;4.90;;;4.37;;
8113;SDS011;4099;52.684;9.918;2022-10-20T03:17:19;5.77;;;4.17;;
8113;SDS011;4099;52.684;9.918;2022-10-20T03:22:21;5.70;;;3.87;;
8113;SDS011;4099;52.684;9.918;2022-10-20T03:27:23;4.73;;;4.23;;
8113;SDS011;4099;52.684;9.918;2022-10-20T03:32:26;6.57;;;4.27;;
8113;SDS011;4099;52.684;9.918;2022-10-20T03:37:28;6.40;;;4.60;;
8113;SDS011;4099;52.684;9.918;2022-10-20T03:42:29;5.97;;;4.70;;
8113;SDS011;4099;52.684;9.918;2022-10-20T03:47:33;6.60;;;4.63;;
8113;SDS011;4099;52.684;9.918;2022-10-20T03:52:35;6.33;;;4.63;;
8113;SDS011;4099;52.684;9.918;2022-10-20T03:57:37;7.67;;;5.30;;
8113;SDS011;4099;52.684;9.918;2022-10-20T04:02:41;5.67;;;4.50;;
8113;SDS011;4099;52.684;9.918;2022-10-20T04:07:44;6.87;;;5.07;;
8113;SDS011;4099;52.684;9.918;2022-10-20T04:12:47;8.40;;;4.60;;
8113;SDS011;4099;52.684;9.918;2022-10-20T04:17:50;7.77;;;4.63;;
8113;SDS011;4099;52.684;9.918;2022-10-20T04:22:52;6.73;;;5.23;;
8113;SDS011;4099;52.684;9.918;2022-10-20T04:27:53;7.70;;;5.43;;
8113;SDS011;4099;52.684;9.918;2022-10-20T04:32:57;6.17;;;5.23;;
8113;SDS011;4099;52.684;9.918;2022-10-20T04:37:59;6.67;;;5.07;;
8113;SDS011;4099;52.684;9.918;2022-10-20T04:43:01;7.73;;;5.00;;
8113;SDS011;4099;52.684;9.918;2022-10-20T04:48:05;8.30;;;5.43;;
8113;SDS011;4099;52.684;9.918;2022-10-20T04:53:07;7.90;;;5.10;;
8113;SDS011;4099;52.684;9.918;2022-10-20T04:58:09;7.43;;;5.20;;
8113;SDS011;4099;52.684;9.918;2022-10-20T05:03:12;7.57;;;5.47;;
8113;SDS011;4099;52.684;9.918;2022-10-20T05:08:14;9.57;;;5.40;;
8113;SDS011;4099;52.684;9.918;2022-10-20T05:13:16;6.47;;;4.47;;
8113;SDS011;4099;52.684;9.918;2022-10-20T05:18:19;5.80;;;4.47;;
8113;SDS011;4099;52.684;9.918;2022-10-20T05:23:21;7.73;;;5.17;;
8113;SDS011;4099;52.684;9.918;2022-10-20T05:28:23;6.43;;;5.20;;
8113;SDS011;4099;52.684;9.918;2022-10-20T05:33:26;7.70;;;4.80;;
8113;SDS011;4099;52.684;9.918;2022-10-20T05:38:28;5.87;;;4.57;;
8113;SDS011;4099;52.684;9.918;2022-10-20T05:43:30;8.03;;;4.80;;
8113;SDS011;4099;52.684;9.918;2022-10-20T05:48:33;7.83;;;6.03;;
8113;SDS011;4099;52.684;9.918;2022-10-20T05:53:35;7.63;;;4.93;;
8113;SDS011;4099;52.684;9.918;2022-10-20T05:58:40;7.27;;;5.50;;
8113;SDS011;4099;52.684;9.918;2022-10-20T06:03:47;5.70;;;5.00;;
8113;SDS011;4099;52.684;9.918;2022-10-20T06:08:49;6.07;;;5.23;;
8113;SDS011;4099;52.684;9.918;2022-10-20T06:13:51;7.30;;;5.30;;
8113;SDS011;4099;52.684;9.918;2022-10-20T06:18:55;8.80;;;5.83;;
8113;SDS011;4099;52.684;9.918;2022-10-20T06:23:58;9.53;;;7.67;;
8113;SDS011;4099;52.684;9.918;2022-10-20T06:29:02;6.70;;;5.83;;
8113;SDS011;4099;52.684;9.918;2022-10-20T06:34:07;6.47;;;5.43;;
8113;SDS011;4099;52.684;9.918;2022-10-20T06:39:12;9.17;;;6.30;;
8113;SDS011;4099;52.684;9.918;2022-10-20T06:44:16;6.80;;;5.87;;
8113;SDS011;4099;52.684;9.918;2022-10-20T06:49:19;7.83;;;6.10;;
8113;SDS011;4099;52.684;9.918;2022-10-20T06:54:22;8.17;;;7.33;;
8113;SDS011;4099;52.684;9.918;2022-10-20T06:59:23;9.50;;;6.90;;
8113;SDS011;4099;52.684;9.918;2022-10-20T07:04:27;8.10;;;6.30;;
8113;SDS011;4099;52.684;9.918;2022-10-20T07:09:29;8.63;;;7.27;;
8113;SDS011;4099;52.684;9.918;2022-10-20T07:14:30;8.03;;;6.33;;
8113;SDS011;4099;52.684;9.918;2022-10-20T07:19:37;8.77;;;6.77;;
8113;SDS011;4099;52.684;9.918;2022-10-20T07:24:39;6.67;;;5.97;;
8113;SDS011;4099;52.684;9.918;2022-10-20T07:29:41;9.40;;;7.47;;
8113;SDS011;4099;52.684;9.918;2022-10-20T07:34:44;7.67;;;6.50;;
8113;SDS011;4099;52.684;9.918;2022-10-20T07:39:46;7.97;;;6.60;;
8113;SDS011;4099;52.684;9.918;2022-10-20T07:44:48;8.37;;;7.50;;
8113;SDS011;4099;52.684;9.918;2022-10-20T07:49:51;8.23;;;6.67;;
8113;SDS011;4099;52.684;9.918;2022-10-20T07:54:53;9.37;;;8.23;;
8113;SDS011;4099;52.684;9.918;2022-10-20T07:59:55;8.63;;;7.13;;
8113;SDS011;4099;52.684;9.918;2022-10-20T08:04:58;8.50;;;6.80;;
8113;SDS011;4099;52.684;9.918;2022-10-20T08:10:00;12.13;;;7.23;;
8113;SDS011;4099;52.684;9.918;2022-10-20T08:15:02;6.93;;;5.63;;
8113;SDS011;4099;52.684;9.918;2022-10-20T08:20:07;9.13;;;7.97;;
8113;SDS011;4099;52.684;9.918;2022-10-20T08:25:09;6.67;;;5.97;;
8113;SDS011;4099;52.684;9.918;2022-10-20T08:30:14;7.40;;;6.50;;
8113;SDS011;4099;52.684;9.918;2022-10-20T08:35:18;6.27;;;5.63;;
8113;SDS011;4099;52.684;9.918;2022-10-20T08:40:21;6.33;;;5.63;;
8113;SDS011;4099;52.684;9.918;2022-10-20T08:45:25;9.43;;;5.73;;
8113;SDS011;4099;52.684;9.918;2022-10-20T08:50:29;7.53;;;6.23;;
8113;SDS011;4099;52.684;9.918;2022-10-20T08:55:32;8.00;;;7.20;;
8113;SDS011;4099;52.684;9.918;2022-10-20T09:00:35;10.60;;;7.90;;
8113;SDS011;4099;52.684;9.918;2022-10-20T09:05:39;7.93;;;6.03;;
8113;SDS011;4099;52.684;9.918;2022-10-20T09:10:44;7.70;;;6.90;;
8113;SDS011;4099;52.684;9.918;2022-10-20T09:15:48;7.43;;;6.00;;
8113;SDS011;4099;52.684;9.918;2022-10-20T09:20:55;7.07;;;5.50;;
8113;SDS011;4099;52.684;9.918;2022-10-20T09:26:00;5.77;;;5.20;;
8113;SDS011;4099;52.684;9.918;2022-10-20T09:31:02;6.90;;;5.33;;
8113;SDS011;4099;52.684;9.918;2022-10-20T09:36:15;9.33;;;7.43;;
8113;SDS011;4099;52.684;9.918;2022-10-20T09:41:18;7.30;;;6.47;;
8113;SDS011;4099;52.684;9.918;2022-10-20T09:46:24;8.37;;;6.83;;
8113;SDS011;4099;52.684;9.918;2022-10-20T09:51:30;6.10;;;5.50;;
8113;SDS011;4099;52.684;9.918;2022-10-20T09:56:33;7.30;;;6.33;;
8113;SDS011;4099;52.684;9.918;2022-10-20T10:01:42;6.43;;;5.73;;
8113;SDS011;4099;52.684;9.918;2022-10-20T10:06:54;11.50;;;9.70;;
8113;SDS011;4099;52.684;9.918;2022-10-20T10:11:57;15.00;;;9.00;;
8113;SDS011;4099;52.684;9.918;2022-10-20T10:17:01;7.00;;;6.17;;
8113;SDS011;4099;52.684;9.918;2022-10-20T10:22:04;7.83;;;6.60;;
8113;SDS011;4099;52.684;9.918;2022-10-20T10:27:17;10.27;;;6.57;;
8113;SDS011;4099;52.684;9.918;2022-10-20T10:32:22;10.00;;;7.00;;
8113;SDS011;4099;52.684;9.918;2022-10-20T10:37:26;16.17;;;14.00;;
8113;SDS011;4099;52.684;9.918;2022-10-20T10:42:32;8.17;;;6.37;;
8113;SDS011;4099;52.684;9.918;2022-10-20T10:53:25;9.13;;;7.30;;
8113;SDS011;4099;52.684;9.918;2022-10-20T10:58:41;7.97;;;7.17;;
8113;SDS011;4099;52.684;9.918;2022-10-20T11:03:52;7.83;;;6.90;;
8113;SDS011;4099;52.684;9.918;2022-10-20T11:09:13;8.33;;;7.33;;
8113;SDS011;4099;52.684;9.918;2022-10-20T11:14:25;10.13;;;7.87;;
8113;SDS011;4099;52.684;9.918;2022-10-20T11:25:15;13.30;;;10.63;;
8113;SDS011;4099;52.684;9.918;2022-10-20T11:30:26;8.93;;;7.20;;
8113;SDS011;4099;52.684;9.918;2022-10-20T11:35:32;9.77;;;8.30;;
8113;SDS011;4099;52.684;9.918;2022-10-20T11:40:40;9.27;;;8.37;;
8113;SDS011;4099;52.684;9.918;2022-10-20T11:45:48;26.57;;;18.87;;
8113;SDS011;4099;52.684;9.918;2022-10-20T11:50:59;14.17;;;11.53;;
8113;SDS011;4099;52.684;9.918;2022-10-20T12:07:53;12.97;;;9.93;;
8113;SDS011;4099;52.684;9.918;2022-10-20T12:13:10;8.47;;;6.87;;
8113;SDS011;4099;52.684;9.918;2022-10-20T12:18:25;8.33;;;7.23;;
8113;SDS011;4099;52.684;9.918;2022-10-20T12:29:44;7.23;;;5.90;;
8113;SDS011;4099;52.684;9.918;2022-10-20T12:34:48;8.07;;;6.00;;
8113;SDS011;4099;52.684;9.918;2022-10-20T12:39:51;6.73;;;6.13;;
8113;SDS011;4099;52.684;9.918;2022-10-20T12:44:56;6.83;;;5.83;;
8113;SDS011;4099;52.684;9.918;2022-10-20T12:50:04;6.40;;;5.70;;
8113;SDS011;4099;52.684;9.918;2022-10-20T12:55:13;6.20;;;5.60;;
8113;SDS011;4099;52.684;9.918;2022-10-20T13:05:59;7.17;;;6.20;;
8113;SDS011;4099;52.684;9.918;2022-10-20T13:16:49;5.00;;;4.27;;
8113;SDS011;4099;52.684;9.918;2022-10-20T13:27:46;5.53;;;4.83;;
8113;SDS011;4099;52.684;9.918;2022-10-20T13:32:51;4.20;;;3.90;;
8113;SDS011;4099;52.684;9.918;2022-10-20T13:38:01;5.37;;;4.43;;
8113;SDS011;4099;52.684;9.918;2022-10-20T13:43:17;4.27;;;3.60;;
8113;SDS011;4099;52.684;9.918;2022-10-20T13:48:35;3.47;;;3.20;;
8113;SDS011;4099;52.684;9.918;2022-10-20T13:53:50;4.70;;;3.10;;
8113;SDS011;4099;52.684;9.918;2022-10-20T13:58:58;3.37;;;2.93;;
8113;SDS011;4099;52.684;9.918;2022-10-20T14:04:01;4.07;;;3.73;;
8113;SDS011;4099;52.684;9.918;2022-10-20T14:09:18;3.57;;;3.27;;
8113;SDS011;4099;52.684;9.918;2022-10-20T14:14:24;5.57;;;3.90;;
8113;SDS011;4099;52.684;9.918;2022-10-20T14:19:28;4.13;;;3.57;;
8113;SDS011;4099;52.684;9.918;2022-10-20T14:24:33;3.60;;;3.30;;
8113;SDS011;4099;52.684;9.918;2022-10-20T14:29:39;3.57;;;3.17;;
8113;SDS011;4099;52.684;9.918;2022-10-20T14:34:52;4.27;;;3.67;;
8113;SDS011;4099;52.684;9.918;2022-10-20T14:39:57;5.00;;;4.50;;
8113;SDS011;4099;52.684;9.918;2022-10-20T14:45:02;6.07;;;4.87;;
8113;SDS011;4099;52.684;9.918;2022-10-20T14:50:05;5.03;;;4.53;;
8113;SDS011;4099;52.684;9.918;2022-10-20T14:55:26;4.40;;;4.00;;
8113;SDS011;4099;52.684;9.918;2022-10-20T15:00:34;5.97;;;4.43;;
8113;SDS011;4099;52.684;9.918;2022-10-20T15:05:38;6.40;;;5.00;;
8113;SDS011;4099;52.684;9.918;2022-10-20T15:10:43;5.93;;;5.33;;
8113;SDS011;4099;52.684;9.918;2022-10-20T15:15:48;6.73;;;5.57;;
8113;SDS011;4099;52.684;9.918;2022-10-20T15:20:50;7.33;;;5.13;;
8113;SDS011;4099;52.684;9.918;2022-10-20T15:25:54;6.07;;;5.20;;
8113;SDS011;4099;52.684;9.918;2022-10-20T15:31:02;8.17;;;5.00;;
8113;SDS011;4099;52.684;9.918;2022-10-20T15:36:09;6.83;;;5.60;;
8113;SDS011;4099;52.684;9.918;2022-10-20T15:41:15;5.67;;;5.13;;
8113;SDS011;4099;52.684;9.918;2022-10-20T15:46:20;5.13;;;4.63;;
8113;SDS011;4099;52.684;9.918;2022-10-20T15:51:23;5.27;;;4.70;;
8113;SDS011;4099;52.684;9.918;2022-10-20T15:56:28;6.67;;;5.60;;
8113;SDS011;4099;52.684;9.918;2022-10-20T16:01:32;6.80;;;5.90;;
8113;SDS011;4099;52.684;9.918;2022-10-20T16:06:35;5.40;;;4.63;;
8113;SDS011;4099;52.684;9.918;2022-10-20T16:11:38;7.07;;;5.90;;
8113;SDS011;4099;52.684;9.918;2022-10-20T16:16:42;6.00;;;4.80;;
8113;SDS011;4099;52.684;9.918;2022-10-20T16:21:45;5.53;;;4.73;;
8113;SDS011;4099;52.684;9.918;2022-10-20T16:26:47;5.97;;;5.03;;
8113;SDS011;4099;52.684;9.918;2022-10-20T16:31:51;6.60;;;5.80;;
8113;SDS011;4099;52.684;9.918;2022-10-20T16:36:55;6.63;;;5.57;;
8113;SDS011;4099;52.684;9.918;2022-10-20T16:41:57;5.93;;;5.33;;
8113;SDS011;4099;52.684;9.918;2022-10-20T16:47:01;8.33;;;7.17;;
8113;SDS011;4099;52.684;9.918;2022-10-20T16:52:04;9.87;;;6.13;;
8113;SDS011;4099;52.684;9.918;2022-10-20T16:57:07;6.13;;;5.53;;
8113;SDS011;4099;52.684;9.918;2022-10-20T17:02:12;7.57;;;6.47;;
8113;SDS011;4099;52.684;9.918;2022-10-20T17:07:14;7.87;;;6.83;;
8113;SDS011;4099;52.684;9.918;2022-10-20T17:12:17;8.90;;;7.50;;
8113;SDS011;4099;52.684;9.918;2022-10-20T17:17:20;10.00;;;7.10;;
8113;SDS011;4099;52.684;9.918;2022-10-20T17:22:23;10.57;;;8.37;;
8113;SDS011;4099;52.684;9.918;2022-10-20T17:27:25;8.70;;;7.80;;
8113;SDS011;4099;52.684;9.918;2022-10-20T17:32:29;13.30;;;7.50;;
8113;SDS011;4099;52.684;9.918;2022-10-20T17:37:32;7.03;;;6.37;;
8113;SDS011;4099;52.684;9.918;2022-10-20T17:42:35;8.23;;;6.67;;
8113;SDS011;4099;52.684;9.918;2022-10-20T17:47:42;8.03;;;7.17;;
8113;SDS011;4099;52.684;9.918;2022-10-20T17:52:44;10.13;;;7.63;;
8113;SDS011;4099;52.684;9.918;2022-10-20T17:57:48;9.03;;;7.67;;
8113;SDS011;4099;52.684;9.918;2022-10-20T18:02:52;9.80;;;7.10;;
8113;SDS011;4099;52.684;9.918;2022-10-20T18:07:55;8.03;;;7.23;;
8113;SDS011;4099;52.684;9.918;2022-10-20T18:12:57;10.27;;;8.70;;
8113;SDS011;4099;52.684;9.918;2022-10-20T18:18:01;8.97;;;8.03;;
8113;SDS011;4099;52.684;9.918;2022-10-20T18:23:03;9.33;;;8.30;;
8113;SDS011;4099;52.684;9.918;2022-10-20T18:28:06;8.77;;;7.87;;
8113;SDS011;4099;52.684;9.918;2022-10-20T18:33:10;9.87;;;8.47;;
8113;SDS011;4099;52.684;9.918;2022-10-20T18:38:12;9.63;;;7.87;;
8113;SDS011;4099;52.684;9.918;2022-10-20T18:43:15;12.73;;;9.20;;
8113;SDS011;4099;52.684;9.918;2022-10-20T18:48:19;9.93;;;8.47;;
8113;SDS011;4099;52.684;9.918;2022-10-20T18:53:21;10.23;;;8.57;;
8113;SDS011;4099;52.684;9.918;2022-10-20T18:58:24;10.10;;;9.10;;
8113;SDS011;4099;52.684;9.918;2022-10-20T19:03:29;11.37;;;9.27;;
8113;SDS011;4099;52.684;9.918;2022-10-20T19:08:32;10.63;;;9.57;;
8113;SDS011;4099;52.684;9.918;2022-10-20T19:13:34;12.40;;;10.20;;
8113;SDS011;4099;52.684;9.918;2022-10-20T19:18:39;12.07;;;10.37;;
8113;SDS011;4099;52.684;9.918;2022-10-20T19:23:42;13.40;;;11.23;;
8113;SDS011;4099;52.684;9.918;2022-10-20T19:28:47;15.30;;;12.20;;
8113;SDS011;4099;52.684;9.918;2022-10-20T19:33:53;21.27;;;14.63;;
8113;SDS011;4099;52.684;9.918;2022-10-20T19:38:57;15.60;;;12.47;;
8113;SDS011;4099;52.684;9.918;2022-10-20T19:44:00;10.87;;;9.77;;
8113;SDS011;4099;52.684;9.918;2022-10-20T19:49:04;14.23;;;11.63;;
8113;SDS011;4099;52.684;9.918;2022-10-20T19:54:07;12.57;;;10.23;;
8113;SDS011;4099;52.684;9.918;2022-10-20T19:59:10;14.00;;;11.70;;
8113;SDS011;4099;52.684;9.918;2022-10-20T20:04:14;15.23;;;12.33;;
8113;SDS011;4099;52.684;9.918;2022-10-20T20:09:16;13.20;;;11.83;;
8113;SDS011;4099;52.684;9.918;2022-10-20T20:14:19;12.63;;;11.30;;
8113;SDS011;4099;52.684;9.918;2022-10-20T20:19:23;13.63;;;11.60;;
8113;SDS011;4099;52.684;9.918;2022-10-20T20:24:26;14.70;;;11.77;;
8113;SDS011;4099;52.684;9.918;2022-10-20T20:29:28;13.60;;;11.93;;
8113;SDS011;4099;52.684;9.918;2022-10-20T20:34:32;15.67;;;11.83;;
8113;SDS011;4099;52.684;9.918;2022-10-20T20:39:34;13.93;;;12.27;;
8113;SDS011;4099;52.684;9.918;2022-10-20T20:44:37;15.77;;;13.13;;
8113;SDS011;4099;52.684;9.918;2022-10-20T20:49:41;15.50;;;13.40;;
8113;SDS011;4099;52.684;9.918;2022-10-20T20:54:43;17.90;;;14.00;;
8113;SDS011;4099;52.684;9.918;2022-10-20T20:59:46;17.20;;;13.67;;
8113;SDS011;4099;52.684;9.918;2022-10-20T21:04:50;16.50;;;13.17;;
8113;SDS011;4099;52.684;9.918;2022-10-20T21:09:55;15.87;;;12.90;;
8113;SDS011;4099;52.684;9.918;2022-10-20T21:14:57;16.47;;;14.37;;
8113;SDS011;4099;52.684;9.918;2022-10-20T21:20:00;14.63;;;12.80;;
8113;SDS011;4099;52.684;9.918;2022-10-20T21:25:02;15.17;;;13.10;;
8113;SDS011;4099;52.684;9.918;2022-10-20T21:30:05;14.17;;;12.50;;
8113;SDS011;4099;52.684;9.918;2022-10-20T21:35:08;14.70;;;12.20;;
8113;SDS011;4099;52.684;9.918;2022-10-20T21:40:11;14.53;;;11.73;;
8113;SDS011;4099;52.684;9.918;2022-10-20T21:45:12;14.90;;;12.17;;
8113;SDS011;4099;52.684;9.918;2022-10-20T21:50:17;13.67;;;11.77;;
8113;SDS011;4099;52.684;9.918;2022-10-20T21:55:18;14.43;;;12.37;;
8113;SDS011;4099;52.684;9.918;2022-10-20T22:00:20;15.10;;;12.87;;
8113;SDS011;4099;52.684;9.918;2022-10-20T22:05:23;16.90;;;13.80;;
8113;SDS011;4099;52.684;9.918;2022-10-20T22:10:25;16.30;;;14.57;;
8113;SDS011;4099;52.684;9.918;2022-10-20T22:15:27;18.03;;;14.30;;
8113;SDS011;4099;52.684;9.918;2022-10-20T22:20:30;15.73;;;13.80;;
8113;SDS011;4099;52.684;9.918;2022-10-20T22:25:35;16.87;;;13.53;;
8113;SDS011;4099;52.684;9.918;2022-10-20T22:30:37;18.37;;;14.33;;
8113;SDS011;4099;52.684;9.918;2022-10-20T22:35:40;17.87;;;13.80;;
8113;SDS011;4099;52.684;9.918;2022-10-20T22:40:43;16.63;;;12.90;;
8113;SDS011;4099;52.684;9.918;2022-10-20T22:45:44;17.20;;;13.70;;
8113;SDS011;4099;52.684;9.918;2022-10-20T22:50:48;19.77;;;12.93;;
8113;SDS011;4099;52.684;9.918;2022-10-20T22:55:50;15.27;;;12.97;;
8113;SDS011;4099;52.684;9.918;2022-10-20T23:00:53;14.20;;;12.17;;
8113;SDS011;4099;52.684;9.918;2022-10-20T23:05:56;15.77;;;13.07;;
8113;SDS011;4099;52.684;9.918;2022-10-20T23:10:58;15.60;;;13.00;;
8113;SDS011;4099;52.684;9.918;2022-10-20T23:16:00;15.73;;;12.23;;
8113;SDS011;4099;52.684;9.918;2022-10-20T23:21:03;16.63;;;13.63;;
8113;SDS011;4099;52.684;9.918;2022-10-20T23:26:06;15.27;;;12.73;;
8113;SDS011;4099;52.684;9.918;2022-10-20T23:31:09;15.50;;;12.67;;
8113;SDS011;4099;52.684;9.918;2022-10-20T23:36:14;17.23;;;12.67;;
8113;SDS011;4099;52.684;9.918;2022-10-20T23:41:16;14.73;;;12.67;;
8113;SDS011;4099;52.684;9.918;2022-10-20T23:46:19;17.67;;;12.87;;
8113;SDS011;4099;52.684;9.918;2022-10-20T23:51:24;16.83;;;12.67;;
8113;SDS011;4099;52.684;9.918;2022-10-20T23:56:26;15.60;;;12.70;;
